Latest Coastal Weather Observations for Coffs Harbour

IDN60701

Issued at 3:05 pm EDT Wednesday 26 November 2014 (issued every 10 minutes, with the page automatically refreshed every 10 minutes)

About coastal observations | Map of coastal stations | Coastal observations for NSW | Marine services | Other Formats
Station Details ID: 059040 Name: COFFS HARBOUR MO Lat: -30.31 Lon: 153.12 Height: 5.0 m
Data from the previous 72 hours. | See also: Recent months at Coffs Harbour
Date/Time
EDT
Temp

°C
Wind Pressure Rain
since 9am
mm
Weather Cloud Vis
km
Sea
Height
m
Swell
Dir
 
Speed
knots
Gust
knots
hPa Trend Height
m
Period
s
Dir
26/03:00pm 20.8 WSW 6 6 1017.4 R 2.0 Drizzle Cloudy 5 - - - -
26/02:38pm 20.4 SSW 8 10 1017.5 - 1.6 - Partly cloudy 5 - - - -
26/02:30pm 20.4 SSW 8 10 1017.5 - 1.6 - Partly cloudy 4 - - - -
26/02:00pm 20.5 S 9 11 1017.7 - 1.6 - Partly cloudy 3 - - - -
26/01:57pm 20.6 S 8 11 1017.8 - 1.6 - Partly cloudy 3 - - - -
26/01:30pm 20.7 WSW 8 10 1018.1 - 1.4 - Partly cloudy 4 - - - -
26/01:07pm 20.6 SW 8 10 1018.0 - 1.2 - Partly cloudy 3 - - - -
26/01:00pm 20.6 SW 8 10 1018.2 - 1.0 - Partly cloudy 3 - - - -
26/12:30pm 20.7 SW 8 9 1018.4 - 0.8 - Partly cloudy 5 - - - -
26/12:04pm 20.9 SW 8 11 1018.4 - 0.6 - Cloudy 5 - - - -
26/12:00pm 20.9 SW 9 11 1018.4 - 0.6 - Mostly cloudy 10 - - - -
26/11:30am 21.0 SW 9 11 1018.6 - 0.6 - Cloudy 10 - - - -
26/11:00am 20.9 SW 9 11 1018.8 - 0.6 - Cloudy 10 - - - -
26/10:30am 20.6 WSW 8 10 1018.9 - 0.6 - Cloudy 10 - - - -
26/10:23am 20.2 SW 9 10 1018.9 - 0.6 - Cloudy 10 - - - -
26/10:00am 20.0 WSW 9 12 1018.9 - 0.6 - Cloudy 4 - - - -
26/09:39am 19.7 SW 9 11 1019.1 - 0.4 - Cloudy 9 - - - -
26/09:30am 19.7 WSW 9 11 1019.0 - 0.4 - Cloudy 7 - - - -
26/09:00am 19.9 SW 9 12 1019.1 R 60.4 Rain Cloudy 5 - - - -
26/08:33am 19.7 WSW 7 10 1019.2 - 59.8 - Partly cloudy 6 - - - -
26/08:30am 19.6 WSW 7 10 1019.2 - 59.4 - Partly cloudy 7 - - - -
26/08:29am 19.5 WSW 7 10 1019.2 - 59.4 - Partly cloudy 8 - - - -
26/08:13am 19.4 WSW 7 9 1019.1 - 59.2 - Partly cloudy 6 - - - -
26/08:00am 19.3 WSW 8 10 1018.9 - 58.4 - Partly cloudy 2 - - - -
26/07:30am 19.3 WSW 9 13 1018.7 - 50.2 - Partly cloudy 1 - - - -
26/07:12am 19.4 W 5 9 1018.5 - 41.8 - Partly cloudy 1 - - - -
26/07:00am 19.5 W 5 6 1018.4 - 38.2 - Partly cloudy 2 - - - -
26/06:36am 19.2 WSW 8 12 1018.1 - 34.4 - Partly cloudy 3 - - - -
26/06:30am 19.2 WSW 7 9 1018.1 - 33.8 - Partly cloudy 2 - - - -
26/06:26am 19.2 WSW 7 9 1018.0 - 33.2 - Partly cloudy 2 - - - -
26/06:00am 19.2 WSW 8 10 1017.9 - 31.0 - Mostly clear 4 - - - -
26/05:30am 19.3 WSW 7 9 1017.6 - 28.2 - Partly cloudy 5 - - - -
26/05:00am 19.4 WSW 7 10 1017.5 - 25.8 - Cloudy 4 - - - -
26/04:53am 19.5 WSW 7 9 1017.4 - 25.4 - Cloudy 4 - - - -
26/04:30am 19.6 WSW 8 10 1017.3 - 24.8 - Partly cloudy 4 - - - -
26/04:00am 19.6 WSW 9 14 1016.9 - 24.0 - Partly cloudy 6 - - - -
26/03:57am 19.6 WSW 9 13 1016.9 - 24.0 - Partly cloudy 6 - - - -
26/03:54am 19.6 WSW 9 13 1016.9 - 23.8 - Partly cloudy 8 - - - -
26/03:53am 19.6 WSW 9 13 1016.9 - 23.8 - Partly cloudy 8 - - - -
26/03:30am 19.7 WSW 8 11 1017.1 - 23.8 - Partly cloudy 4 - - - -
26/03:28am 19.7 WSW 8 11 1017.1 - 23.8 - Partly cloudy 4 - - - -
26/03:13am 19.7 WSW 8 13 1017.3 - 23.2 - Partly cloudy 3 - - - -
26/03:12am 19.7 WSW 8 13 1017.3 - 23.2 - Partly cloudy 3 - - - -
26/03:00am 19.8 WSW 9 12 1017.5 - 22.4 - Mostly cloudy 3 - - - -
26/02:42am 19.8 WSW 10 12 1017.6 - 22.0 - Partly cloudy 3 - - - -
26/02:30am 19.9 WSW 9 11 1017.6 - 21.6 - Cloudy 5 - - - -
26/02:00am 19.9 WSW 9 13 1018.0 - 21.2 - Partly cloudy 4 - - - -
26/01:30am 19.9 WSW 8 10 1018.3 - 20.4 - Partly cloudy 5 - - - -
26/01:00am 20.0 WSW 8 10 1018.8 - 20.0 - Partly cloudy 4 - - - -
26/12:30am 20.1 WSW 8 11 1019.2 - 19.0 - Partly cloudy 4 - - - -
26/12:00am 20.2 WSW 9 13 1019.3 - 18.4 - Cloudy 5 - - - -
 
Date/Time
EDT
Temp

°C
Wind Pressure Rain
since 9am
mm
Weather Cloud Vis
km
Sea
Height
m
Swell
Dir
 
Speed
knots
Gust
knots
hPa Trend Height
m
Period
s
Dir
25/11:30pm 20.4 SW 9 13 1019.3 - 18.2 - Partly cloudy 3 - - - -
25/11:28pm 20.5 SW 9 13 1019.3 - 18.2 - Partly cloudy 3 - - - -
25/11:00pm 20.7 SW 7 9 1019.3 - 17.8 - Partly cloudy 3 - - - -
25/10:39pm 20.7 SW 10 14 1019.3 - 17.4 - Partly cloudy 4 - - - -
25/10:30pm 20.8 SW 11 15 1019.2 - 17.2 - Partly cloudy 4 - - - -
25/10:00pm 21.2 SW 9 12 1018.7 - 16.2 - Cloudy 4 - - - -
25/09:54pm 21.4 SW 9 13 1018.7 - 16.0 - Cloudy 6 - - - -
25/09:30pm 21.6 SSW 11 15 1018.4 - 16.0 - Partly cloudy 9 - - - -
25/09:12pm 21.8 SSW 12 16 1018.3 - 16.0 - Partly cloudy 8 - - - -
25/09:00pm 21.7 SSW 13 17 1018.2 - 16.0 - Cloudy 7 - - - -
25/08:42pm 22.0 SSW 11 17 1018.0 - 15.8 - Partly cloudy 6 - - - -
25/08:30pm 22.4 SSW 11 14 1017.8 - 15.6 - Partly cloudy 10 - - - -
25/08:00pm 22.5 SW 4 6 1017.4 - 15.6 - Partly cloudy 7 - - - -
25/07:30pm 22.6 SW 5 6 1017.2 - 15.6 - Partly cloudy 10 - - - -
25/07:00pm 22.6 S 5 7 1016.7 - 15.6 - Partly cloudy 10 - - - -
25/06:30pm 22.8 S 5 6 1015.9 - 15.6 - Partly cloudy 10 - - - -
25/06:13pm 22.6 WSW 4 6 1015.6 - 15.6 - Partly cloudy 10 - - - -
25/06:00pm 22.8 CALM 0 3 1015.7 - 15.6 - Cloudy 10 - - - -
25/05:36pm 22.5 W 4 5 1015.7 - 15.6 - Partly cloudy 10 - - - -
25/05:30pm 22.5 W 5 6 1015.5 - 15.6 - Partly cloudy 10 - - - -
25/05:00pm 22.3 WSW 2 4 1015.2 - 15.6 - Cloudy 10 - - - -
25/04:47pm 22.5 WNW 4 5 1015.4 - 15.6 - Partly cloudy 9 - - - -
25/04:38pm 22.5 WNW 5 7 1015.3 - 15.6 - Partly cloudy 7 - - - -
25/04:27pm 22.4 - 1 5 1015.1 - 15.6 - Partly cloudy 6 - - - -
25/04:00pm 22.1 WNW 3 6 1014.8 - 15.4 - Partly cloudy 6 - - - -
25/03:30pm 21.6 W 4 8 1014.6 - 14.6 - Partly cloudy 4 - - - -
25/03:00pm 21.3 SSE 12 17 1014.7 R 11.0 Thunderstorm Cloudy 5 - - - -
25/02:45pm 23.2 SSW 15 20 1014.5 - 4.2 - Partly cloudy 6 - - - -
25/02:30pm 23.8 SSW 10 11 1014.3 - 3.4 - Cloudy 10 - - - -
25/02:00pm 26.4 SE 5 7 1012.7 - 3.2 - Partly cloudy 10 - - - -
25/01:41pm 25.2 N 5 6 1013.2 - 3.2 - Partly cloudy 9 - - - -
25/01:30pm 24.4 NE 5 8 1013.3 - 3.2 - Partly cloudy 6 - - - -
25/01:13pm 25.3 NNE 6 8 1013.3 - 0.8 - Partly cloudy 4 - - - -
25/01:00pm 25.6 NE 8 10 1012.7 - 0.0 - Partly cloudy 10 - - - -
25/12:30pm 27.8 NE 8 11 1012.5 - 0.0 - - 10 - - - -
25/12:00pm 27.8 NNE 9 11 1012.8 - 0.0 - - 10 - - - -
25/11:30am 27.7 NE 11 13 1012.8 - 0.0 - - 10 - - - -
25/11:17am 27.4 NE 10 13 1012.9 - 0.0 - - 10 - - - -
25/11:04am 26.7 NE 10 13 1012.9 - 0.0 - - 6 - - - -
25/11:00am 27.1 NE 10 13 1013.0 - 0.0 - - 7 - - - -
25/10:30am 26.8 ENE 7 9 1013.1 - 0.0 - - 10 - - - -
25/10:00am 27.3 ENE 6 7 1012.7 - 0.0 - - 10 - - - -
25/09:30am 26.6 E 6 8 1012.9 - 0.0 - - 10 - - - -
25/09:00am 26.6 E 5 6 1012.9 R 0.0 Smoke Mostly clear 15 - - - -
25/08:30am 26.7 NE 3 4 1012.7 - 0.0 - - 10 - - - -
25/08:00am 26.5 NE 5 6 1012.4 - 0.0 - - 10 - - - -
25/07:30am 24.9 NE 6 7 1012.2 - 0.0 - - 9 - - - -
25/07:00am 24.4 NE 4 4 1012.0 - 0.0 - - 10 - - - -
25/06:30am 22.0 CALM 0 0 1011.8 - 0.0 - - 10 - - - -
25/06:00am 20.7 NNE 1 4 1011.8 - 0.0 - - 10 - - - -
25/05:30am 20.9 N 4 6 1011.4 - 0.0 - - 9 - - - -
25/05:00am 20.9 NNE 4 5 1011.0 - 0.0 - - 10 - - - -
25/04:30am 21.0 NNE 5 6 1010.8 - 0.0 - - 8 - - - -
25/04:00am 21.5 NNE 7 8 1010.6 - 0.0 - - 8 - - - -
25/03:30am 21.3 NNE 6 6 1010.7 - 0.0 - Partly cloudy 8 - - - -
25/03:00am 21.3 NNE 6 7 1010.9 - 0.0 - - 7 - - - -
25/02:30am 21.7 NNE 7 8 1010.7 - 0.0 - Partly cloudy 9 - - - -
25/02:00am 21.9 NNE 7 10 1011.1 - 0.0 - - 8 - - - -
25/01:30am 22.0 NE 7 9 1011.4 - 0.0 - - 7 - - - -
25/01:00am 22.3 NNE 7 9 1011.6 - 0.0 - - 8 - - - -
25/12:30am 22.5 NNE 5 7 1011.9 - 0.0 - Partly cloudy 9 - - - -
25/12:00am 23.0 NNW 5 7 1012.0 - 0.0 - Mostly cloudy 10 - - - -
 
Date/Time
EDT
Temp

°C
Wind Pressure Rain
since 9am
mm
Weather Cloud Vis
km
Sea
Height
m
Swell
Dir
 
Speed
knots
Gust
knots
hPa Trend Height
m
Period
s
Dir
24/11:30pm 22.4 NNE 14 21 1011.4 - 0.0 - Partly cloudy 9 - - - -
24/11:00pm 22.1 NNE 16 21 1010.6 - 0.0 - - 8 - - - -
24/10:30pm 22.1 NE 17 20 1010.5 - 0.0 - - 8 - - - -
24/10:00pm 22.3 NNE 18 22 1010.5 - 0.0 - - 10 - - - -
24/09:30pm 22.6 NNE 16 21 1010.3 - 0.0 - - 10 - - - -
24/09:00pm 22.6 NNE 16 20 1010.1 - 0.0 - - 10 - - - -
24/08:30pm 22.6 NNE 17 23 1009.6 - 0.0 - - 10 - - - -
24/08:00pm 22.9 NNE 16 21 1009.4 - 0.0 - - 10 - - - -
24/07:30pm 23.1 NNE 18 23 1009.1 - 0.0 - - 10 - - - -
24/07:00pm 23.6 NNE 17 24 1008.9 - 0.0 - - 10 - - - -
24/06:30pm 24.2 NNE 17 22 1008.7 - 0.0 - - 10 - - - -
24/06:00pm 25.1 NNE 20 27 1008.0 - 0.0 - - 10 - - - -
24/05:30pm 25.0 NNE 23 30 1007.9 - 0.0 - - 10 - - - -
24/05:00pm 25.9 NE 22 27 1008.2 - 0.0 - - 10 - - - -
24/04:30pm 27.1 NE 22 29 1008.5 - 0.0 - - 10 - - - -
24/04:00pm 27.3 NE 22 28 1008.7 - 0.0 - - 10 - - - -
24/03:30pm 27.8 NE 23 30 1009.2 - 0.0 - - 10 - - - -
24/03:00pm 27.3 NE 24 32 1010.0 F 0.0 Smoke Partly cloudy 10 - - - -
24/02:30pm 28.6 NE 22 29 1010.6 - 0.0 - - 10 - - - -
24/02:00pm 28.4 NE 20 27 1011.1 - 0.0 - - 10 - - - -
24/01:30pm 28.1 NE 21 27 1011.5 - 0.0 - - 10 - - - -
24/01:00pm 28.4 NNE 22 28 1011.9 - 0.0 - - 10 - - - -
24/12:30pm 27.3 NNE 19 27 1012.4 - 0.0 - - 10 - - - -
24/12:00pm 26.1 NE 20 26 1012.8 - 0.0 - - 10 - - - -
24/11:30am 27.4 NNE 21 29 1013.2 - 0.0 - - 10 - - - -
24/11:00am 27.3 NE 20 26 1013.6 - 0.0 - - 10 - - - -
24/10:30am 26.6 NE 21 26 1013.9 - 0.0 - - 10 - - - -
24/10:00am 26.7 NNE 18 22 1013.9 - 0.0 - - 10 - - - -
24/09:30am 26.4 NE 14 17 1014.2 - 0.0 - - 10 - - - -
24/09:00am 26.7 NE 13 17 1014.4 R 0.0 Smoke Partly cloudy 15 - - - -
24/08:30am 27.3 NE 11 14 1014.5 - 0.0 - - 10 - - - -
24/08:00am 26.5 NE 8 10 1014.4 - 0.0 - - 10 - - - -
24/07:30am 26.4 NNE 10 14 1014.5 - 0.0 - - 10 - - - -
24/07:00am 25.3 NNE 9 11 1014.3 - 0.0 - - 10 - - - -
24/06:30am 23.8 NNE 10 13 1014.1 - 0.0 - - 10 - - - -
24/06:00am 22.3 NNE 11 14 1013.6 - 0.0 - - 10 - - - -
24/05:30am 22.2 NNE 13 16 1013.2 - 0.0 - - 10 - - - -
24/05:00am 22.2 N 7 10 1013.2 - 0.0 - - 10 - - - -
24/04:30am 22.1 NNE 9 13 1013.3 - 0.0 - - 10 - - - -
24/04:00am 22.0 N 11 15 1013.3 - 0.0 - - 9 - - - -
24/03:30am 21.8 NNE 12 16 1013.2 - 0.0 - - 7 - - - -
24/03:00am 21.5 NNE 8 10 1013.4 - 0.0 - - 7 - - - -
24/02:30am 21.7 N 9 12 1013.3 - 0.0 - - 7 - - - -
24/02:00am 21.8 NNE 10 12 1013.9 - 0.0 - - 8 - - - -
24/01:30am 21.9 NNE 11 15 1013.7 - 0.0 - - 8 - - - -
24/01:00am 22.4 NNE 8 11 1013.6 - 0.0 - - 8 - - - -
24/12:30am 22.6 NNE 11 14 1013.4 - 0.0 - - 8 - - - -
24/12:00am 22.5 NNE 14 18 1013.7 - 0.0 - - 8 - - - -
 
Date/Time
EDT
Temp

°C
Wind Pressure Rain
since 9am
mm
Weather Cloud Vis
km
Sea
Height
m
Swell
Dir
 
Speed
knots
Gust
knots
hPa Trend Height
m
Period
s
Dir
23/11:30pm 22.5 NNE 14 19 1013.4 - 0.0 - - 9 - - - -
23/11:20pm 22.7 NNE 13 17 1013.3 - 0.0 - - 8 - - - -
23/11:00pm 22.3 NNE 12 15 1013.5 - 0.0 - - 6 - - - -
23/10:53pm 22.4 NE 10 13 1013.5 - 0.0 - - 6 - - - -
23/10:30pm 22.6 NNE 8 10 1013.7 - 0.0 - - 7 - - - -
23/10:19pm 22.6 NNE 7 9 1013.5 - 0.0 - - 7 - - - -
23/10:00pm 22.5 NNE 7 9 1013.4 - 0.0 - - 6 - - - -
23/09:51pm 22.5 NNE 7 9 1013.2 - 0.0 - - 6 - - - -
23/09:30pm 23.0 NE 9 12 1013.1 - 0.0 - - 9 - - - -
23/09:00pm 22.8 NNE 10 15 1013.1 - 0.0 - - 8 - - - -
23/08:58pm 22.9 NNE 10 13 1013.0 - 0.0 - - 8 - - - -
23/08:30pm 23.0 NNE 9 13 1013.4 - 0.0 - - 6 - - - -
23/08:23pm 22.8 NNE 7 10 1013.5 - 0.0 - - 6 - - - -
23/08:12pm 22.8 N 7 8 1013.6 - 0.0 - - 8 - - - -
23/08:00pm 22.8 NNE 10 12 1013.5 - 0.0 - - 6 - - - -
23/07:57pm 22.7 NNE 10 12 1013.5 - 0.0 - - 6 - - - -
23/07:30pm 23.1 NE 5 7 1013.3 - 0.0 - - 6 - - - -
23/07:21pm 23.2 NNE 3 6 1013.2 - 0.0 - - 6 - - - -
23/07:00pm 23.6 NNE 7 9 1012.9 - 0.0 - - 7 - - - -
23/06:30pm 23.6 NNE 10 13 1012.3 - 0.0 - - 8 - - - -
23/06:00pm 23.9 NNE 12 17 1011.4 - 0.0 - - 8 - - - -
23/05:30pm 24.0 NNE 16 20 1010.8 - 0.0 - - 10 - - - -
23/05:00pm 24.5 NE 16 19 1010.5 - 0.0 - - 10 - - - -
23/04:30pm 25.2 NE 15 20 1010.3 - 0.0 - - 10 - - - -
23/04:00pm 25.3 NE 14 18 1010.4 - 0.0 - - 10 - - - -
23/03:30pm 25.9 NNE 12 17 1010.7 - 0.0 - - 10 - - - -

Other Formats:

Comma delimited format used in spreadsheet applications
http://www.bom.gov.au/fwo/IDN60701/IDN60701.94791.axf

JavaScript Object Notation format (JSON) in row-major order
http://www.bom.gov.au/fwo/IDN60701/IDN60701.94791.json